sensor_id;sensor_type;location;lat;lon;timestamp;temperature;humidity
10247;DHT22;5168;47.854;7.944;2023-08-08T00:04:56;8.70;99.90
10247;DHT22;5168;47.854;7.944;2023-08-08T00:07:22;8.70;99.90
10247;DHT22;5168;47.854;7.944;2023-08-08T00:14:42;8.10;99.90
10247;DHT22;5168;47.854;7.944;2023-08-08T00:24:26;8.20;99.90
10247;DHT22;5168;47.854;7.944;2023-08-08T00:26:52;8.30;99.90
10247;DHT22;5168;47.854;7.944;2023-08-08T00:29:18;8.20;99.90
10247;DHT22;5168;47.854;7.944;2023-08-08T00:31:43;8.50;99.90
10247;DHT22;5168;47.854;7.944;2023-08-08T00:34:09;8.80;99.90
10247;DHT22;5168;47.854;7.944;2023-08-08T00:39:00;8.40;99.90
10247;DHT22;5168;47.854;7.944;2023-08-08T00:41:26;8.30;99.90
10247;DHT22;5168;47.854;7.944;2023-08-08T00:43:51;8.00;99.90
10247;DHT22;5168;47.854;7.944;2023-08-08T00:46:21;8.20;99.90
10247;DHT22;5168;47.854;7.944;2023-08-08T00:51:14;8.30;99.90
10247;DHT22;5168;47.854;7.944;2023-08-08T00:53:40;8.20;99.90
10247;DHT22;5168;47.854;7.944;2023-08-08T00:58:32;8.40;99.90
10247;DHT22;5168;47.854;7.944;2023-08-08T01:03:26;8.10;99.90
10247;DHT22;5168;47.854;7.944;2023-08-08T01:05:59;7.90;99.90
10247;DHT22;5168;47.854;7.944;2023-08-08T01:08:33;8.00;99.90
10247;DHT22;5168;47.854;7.944;2023-08-08T01:13:27;7.90;99.90
10247;DHT22;5168;47.854;7.944;2023-08-08T01:15:57;7.70;99.90
10247;DHT22;5168;47.854;7.944;2023-08-08T01:18:23;7.90;99.90
10247;DHT22;5168;47.854;7.944;2023-08-08T01:20:53;7.70;99.90
10247;DHT22;5168;47.854;7.944;2023-08-08T01:26:05;7.80;99.90
10247;DHT22;5168;47.854;7.944;2023-08-08T01:28:31;7.70;99.90
10247;DHT22;5168;47.854;7.944;2023-08-08T01:36:01;7.70;99.90
10247;DHT22;5168;47.854;7.944;2023-08-08T01:38:34;7.50;99.90
10247;DHT22;5168;47.854;7.944;2023-08-08T01:41:01;8.30;99.90
10247;DHT22;5168;47.854;7.944;2023-08-08T01:43:30;7.70;99.90
10247;DHT22;5168;47.854;7.944;2023-08-08T01:45:56;7.90;99.90
10247;DHT22;5168;47.854;7.944;2023-08-08T01:50:48;7.90;99.90
10247;DHT22;5168;47.854;7.944;2023-08-08T01:53:14;7.50;99.90
10247;DHT22;5168;47.854;7.944;2023-08-08T01:55:40;7.40;99.90
10247;DHT22;5168;47.854;7.944;2023-08-08T01:58:05;7.30;99.90
10247;DHT22;5168;47.854;7.944;2023-08-08T02:00:31;7.50;99.90
10247;DHT22;5168;47.854;7.944;2023-08-08T02:02:57;7.50;99.90
10247;DHT22;5168;47.854;7.944;2023-08-08T02:05:23;7.40;99.90
10247;DHT22;5168;47.854;7.944;2023-08-08T02:07:49;7.50;99.90
10247;DHT22;5168;47.854;7.944;2023-08-08T02:10:15;7.60;99.90
10247;DHT22;5168;47.854;7.944;2023-08-08T02:12:41;7.80;99.90
10247;DHT22;5168;47.854;7.944;2023-08-08T02:22:25;8.00;99.90
10247;DHT22;5168;47.854;7.944;2023-08-08T02:24:50;8.00;99.90
10247;DHT22;5168;47.854;7.944;2023-08-08T02:27:16;7.10;99.90
10247;DHT22;5168;47.854;7.944;2023-08-08T02:29:42;7.70;99.90
10247;DHT22;5168;47.854;7.944;2023-08-08T02:36:59;7.30;99.90
10247;DHT22;5168;47.854;7.944;2023-08-08T02:39:25;7.30;99.90
10247;DHT22;5168;47.854;7.944;2023-08-08T02:41:50;7.70;99.90
10247;DHT22;5168;47.854;7.944;2023-08-08T02:51:34;7.20;99.90
10247;DHT22;5168;47.854;7.944;2023-08-08T02:53:59;7.20;99.90
10247;DHT22;5168;47.854;7.944;2023-08-08T02:56:25;7.10;99.90
10247;DHT22;5168;47.854;7.944;2023-08-08T03:03:42;7.10;99.90
10247;DHT22;5168;47.854;7.944;2023-08-08T03:06:08;7.10;99.90
10247;DHT22;5168;47.854;7.944;2023-08-08T03:08:33;7.70;99.90
10247;DHT22;5168;47.854;7.944;2023-08-08T03:23:09;7.40;99.90
10247;DHT22;5168;47.854;7.944;2023-08-08T03:28:03;7.50;99.90
10247;DHT22;5168;47.854;7.944;2023-08-08T03:30:29;7.60;99.90
10247;DHT22;5168;47.854;7.944;2023-08-08T03:32:54;7.50;99.90
10247;DHT22;5168;47.854;7.944;2023-08-08T03:40:12;7.30;99.90
10247;DHT22;5168;47.854;7.944;2023-08-08T03:42:39;7.20;99.90
10247;DHT22;5168;47.854;7.944;2023-08-08T03:45:05;7.40;99.90
10247;DHT22;5168;47.854;7.944;2023-08-08T03:47:34;7.20;99.90
10247;DHT22;5168;47.854;7.944;2023-08-08T03:49:59;7.10;99.90
10247;DHT22;5168;47.854;7.944;2023-08-08T03:52:25;7.40;99.90
10247;DHT22;5168;47.854;7.944;2023-08-08T03:54:51;7.10;99.90
10247;DHT22;5168;47.854;7.944;2023-08-08T03:57:18;7.30;99.90
10247;DHT22;5168;47.854;7.944;2023-08-08T03:59:43;7.20;99.90
10247;DHT22;5168;47.854;7.944;2023-08-08T04:07:01;6.80;99.90
10247;DHT22;5168;47.854;7.944;2023-08-08T04:09:26;6.90;99.90
10247;DHT22;5168;47.854;7.944;2023-08-08T04:11:52;7.70;99.90
10247;DHT22;5168;47.854;7.944;2023-08-08T04:14:18;7.00;99.90
10247;DHT22;5168;47.854;7.944;2023-08-08T04:19:09;7.00;99.90
10247;DHT22;5168;47.854;7.944;2023-08-08T04:21:35;7.00;99.90
10247;DHT22;5168;47.854;7.944;2023-08-08T04:24:02;7.40;99.90
10247;DHT22;5168;47.854;7.944;2023-08-08T04:26:27;7.50;99.90
10247;DHT22;5168;47.854;7.944;2023-08-08T04:28:53;7.90;99.90
10247;DHT22;5168;47.854;7.944;2023-08-08T04:31:19;7.00;99.90
10247;DHT22;5168;47.854;7.944;2023-08-08T04:41:02;7.10;99.90
10247;DHT22;5168;47.854;7.944;2023-08-08T04:43:28;7.20;99.90
10247;DHT22;5168;47.854;7.944;2023-08-08T04:45:54;7.60;99.90
10247;DHT22;5168;47.854;7.944;2023-08-08T04:48:19;7.30;99.90
10247;DHT22;5168;47.854;7.944;2023-08-08T04:50:48;7.30;99.90
10247;DHT22;5168;47.854;7.944;2023-08-08T04:53:13;7.80;99.90
10247;DHT22;5168;47.854;7.944;2023-08-08T05:05:24;7.40;99.90
10247;DHT22;5168;47.854;7.944;2023-08-08T05:15:08;7.70;99.90
10247;DHT22;5168;47.854;7.944;2023-08-08T05:17:33;7.70;99.90
10247;DHT22;5168;47.854;7.944;2023-08-08T05:19:59;7.80;99.90
10247;DHT22;5168;47.854;7.944;2023-08-08T05:22:24;7.60;99.90
10247;DHT22;5168;47.854;7.944;2023-08-08T05:27:16;8.30;99.90
10247;DHT22;5168;47.854;7.944;2023-08-08T05:29:41;8.90;99.90
10247;DHT22;5168;47.854;7.944;2023-08-08T05:32:08;8.70;99.90
10247;DHT22;5168;47.854;7.944;2023-08-08T05:34:34;9.70;99.90
10247;DHT22;5168;47.854;7.944;2023-08-08T05:36:59;9.00;99.90
10247;DHT22;5168;47.854;7.944;2023-08-08T05:41:52;9.90;99.90
10247;DHT22;5168;47.854;7.944;2023-08-08T05:46:45;10.00;99.90
10247;DHT22;5168;47.854;7.944;2023-08-08T05:49:10;10.00;99.90
10247;DHT22;5168;47.854;7.944;2023-08-08T05:51:36;10.50;99.90
10247;DHT22;5168;47.854;7.944;2023-08-08T05:54:02;10.60;99.90
10247;DHT22;5168;47.854;7.944;2023-08-08T05:56:37;11.00;99.90
10247;DHT22;5168;47.854;7.944;2023-08-08T05:59:03;11.00;99.90
10247;DHT22;5168;47.854;7.944;2023-08-08T06:01:29;11.10;99.90
10247;DHT22;5168;47.854;7.944;2023-08-08T06:03:55;11.20;99.90
10247;DHT22;5168;47.854;7.944;2023-08-08T06:06:20;11.90;99.90
10247;DHT22;5168;47.854;7.944;2023-08-08T06:08:49;11.60;99.90
10247;DHT22;5168;47.854;7.944;2023-08-08T06:11:17;11.60;99.90
10247;DHT22;5168;47.854;7.944;2023-08-08T06:13:43;11.70;99.90
10247;DHT22;5168;47.854;7.944;2023-08-08T06:25:54;12.00;99.90
10247;DHT22;5168;47.854;7.944;2023-08-08T06:28:19;12.10;99.90
10247;DHT22;5168;47.854;7.944;2023-08-08T06:42:55;12.80;99.90
10247;DHT22;5168;47.854;7.944;2023-08-08T06:45:21;12.90;99.90
10247;DHT22;5168;47.854;7.944;2023-08-08T06:47:46;12.80;99.90
10247;DHT22;5168;47.854;7.944;2023-08-08T06:50:13;13.50;99.90
10247;DHT22;5168;47.854;7.944;2023-08-08T06:52:39;13.70;99.90
10247;DHT22;5168;47.854;7.944;2023-08-08T06:55:04;13.10;99.90
10247;DHT22;5168;47.854;7.944;2023-08-08T06:57:33;13.80;99.90
10247;DHT22;5168;47.854;7.944;2023-08-08T07:00:00;14.20;99.90
10247;DHT22;5168;47.854;7.944;2023-08-08T07:02:25;14.30;99.90
10247;DHT22;5168;47.854;7.944;2023-08-08T07:04:51;14.20;99.90
10247;DHT22;5168;47.854;7.944;2023-08-08T07:21:55;13.90;99.90
10247;DHT22;5168;47.854;7.944;2023-08-08T07:24:20;14.10;99.90
10247;DHT22;5168;47.854;7.944;2023-08-08T07:26:46;14.60;99.90
10247;DHT22;5168;47.854;7.944;2023-08-08T07:29:14;14.80;99.90
10247;DHT22;5168;47.854;7.944;2023-08-08T07:31:40;15.10;99.90
10247;DHT22;5168;47.854;7.944;2023-08-08T07:36:32;15.00;99.90
10247;DHT22;5168;47.854;7.944;2023-08-08T07:38:57;14.80;99.90
10247;DHT22;5168;47.854;7.944;2023-08-08T07:41:26;15.40;99.90
10247;DHT22;5168;47.854;7.944;2023-08-08T07:43:52;16.20;99.90
10247;DHT22;5168;47.854;7.944;2023-08-08T07:48:43;16.70;99.90
10247;DHT22;5168;47.854;7.944;2023-08-08T07:51:12;16.70;99.90
10247;DHT22;5168;47.854;7.944;2023-08-08T07:53:37;16.70;99.90
10247;DHT22;5168;47.854;7.944;2023-08-08T07:56:03;17.10;99.90
10247;DHT22;5168;47.854;7.944;2023-08-08T08:10:38;15.70;99.90
10247;DHT22;5168;47.854;7.944;2023-08-08T08:13:04;15.00;99.90
10247;DHT22;5168;47.854;7.944;2023-08-08T08:15:29;15.00;99.90
10247;DHT22;5168;47.854;7.944;2023-08-08T08:17:56;16.10;99.90
10247;DHT22;5168;47.854;7.944;2023-08-08T08:20:22;15.60;99.90
10247;DHT22;5168;47.854;7.944;2023-08-08T08:25:14;16.80;99.90
10247;DHT22;5168;47.854;7.944;2023-08-08T08:27:40;17.20;99.90
10247;DHT22;5168;47.854;7.944;2023-08-08T08:30:07;17.20;99.90
10247;DHT22;5168;47.854;7.944;2023-08-08T08:32:35;16.90;99.90
10247;DHT22;5168;47.854;7.944;2023-08-08T08:35:02;17.10;99.90
10247;DHT22;5168;47.854;7.944;2023-08-08T08:37:32;17.00;99.90
10247;DHT22;5168;47.854;7.944;2023-08-08T08:39:58;17.50;99.90
10247;DHT22;5168;47.854;7.944;2023-08-08T08:42:23;17.30;99.90
10247;DHT22;5168;47.854;7.944;2023-08-08T08:44:50;18.10;99.90
10247;DHT22;5168;47.854;7.944;2023-08-08T08:47:17;17.70;99.90
10247;DHT22;5168;47.854;7.944;2023-08-08T08:49:45;17.60;99.90
10247;DHT22;5168;47.854;7.944;2023-08-08T08:54:37;16.60;99.90
10247;DHT22;5168;47.854;7.944;2023-08-08T08:57:04;16.90;99.90
10247;DHT22;5168;47.854;7.944;2023-08-08T08:59:29;16.60;99.90
10247;DHT22;5168;47.854;7.944;2023-08-08T09:01:56;16.80;99.90
10247;DHT22;5168;47.854;7.944;2023-08-08T09:06:48;16.80;99.90
10247;DHT22;5168;47.854;7.944;2023-08-08T09:11:49;16.50;99.90
10247;DHT22;5168;47.854;7.944;2023-08-08T09:14:19;16.60;99.90
10247;DHT22;5168;47.854;7.944;2023-08-08T09:16:46;16.40;99.90
10247;DHT22;5168;47.854;7.944;2023-08-08T09:19:15;16.60;99.90
10247;DHT22;5168;47.854;7.944;2023-08-08T09:21:43;16.00;99.90
10247;DHT22;5168;47.854;7.944;2023-08-08T09:24:08;16.30;99.90
10247;DHT22;5168;47.854;7.944;2023-08-08T09:29:01;15.90;99.90
10247;DHT22;5168;47.854;7.944;2023-08-08T09:31:27;15.70;99.90
10247;DHT22;5168;47.854;7.944;2023-08-08T09:33:59;15.60;99.90
10247;DHT22;5168;47.854;7.944;2023-08-08T09:36:25;15.90;99.90
10247;DHT22;5168;47.854;7.944;2023-08-08T09:38:52;16.30;99.90
10247;DHT22;5168;47.854;7.944;2023-08-08T09:41:22;16.10;99.90
10247;DHT22;5168;47.854;7.944;2023-08-08T09:43:49;15.70;99.90
10247;DHT22;5168;47.854;7.944;2023-08-08T09:48:42;16.20;99.90
10247;DHT22;5168;47.854;7.944;2023-08-08T09:51:08;16.50;99.90
10247;DHT22;5168;47.854;7.944;2023-08-08T09:53:34;17.50;99.90
10247;DHT22;5168;47.854;7.944;2023-08-08T09:56:04;17.40;99.90
10247;DHT22;5168;47.854;7.944;2023-08-08T09:58:30;17.90;99.90
10247;DHT22;5168;47.854;7.944;2023-08-08T10:00:56;17.40;99.90
10247;DHT22;5168;47.854;7.944;2023-08-08T10:03:22;17.80;99.90
10247;DHT22;5168;47.854;7.944;2023-08-08T10:05:48;18.10;99.90
10247;DHT22;5168;47.854;7.944;2023-08-08T10:08:18;17.90;99.90
10247;DHT22;5168;47.854;7.944;2023-08-08T10:10:46;18.30;99.90
10247;DHT22;5168;47.854;7.944;2023-08-08T10:13:23;18.90;99.90
10247;DHT22;5168;47.854;7.944;2023-08-08T10:15:49;18.50;99.90
10247;DHT22;5168;47.854;7.944;2023-08-08T10:18:17;18.30;99.90
10247;DHT22;5168;47.854;7.944;2023-08-08T10:20:47;18.60;99.90
10247;DHT22;5168;47.854;7.944;2023-08-08T10:23:15;18.20;99.90
10247;DHT22;5168;47.854;7.944;2023-08-08T10:25:46;18.30;99.90
10247;DHT22;5168;47.854;7.944;2023-08-08T10:28:13;18.80;99.90
10247;DHT22;5168;47.854;7.944;2023-08-08T10:33:26;18.70;99.90
10247;DHT22;5168;47.854;7.944;2023-08-08T10:36:03;18.50;99.90
10247;DHT22;5168;47.854;7.944;2023-08-08T10:38:43;19.20;99.90
10247;DHT22;5168;47.854;7.944;2023-08-08T10:41:11;19.20;99.90
10247;DHT22;5168;47.854;7.944;2023-08-08T10:46:04;19.60;99.90
10247;DHT22;5168;47.854;7.944;2023-08-08T10:50:58;20.40;99.90
10247;DHT22;5168;47.854;7.944;2023-08-08T10:53:28;20.80;99.90
10247;DHT22;5168;47.854;7.944;2023-08-08T10:56:01;21.20;99.90
10247;DHT22;5168;47.854;7.944;2023-08-08T10:58:38;22.30;99.90
10247;DHT22;5168;47.854;7.944;2023-08-08T11:01:05;21.40;99.90
10247;DHT22;5168;47.854;7.944;2023-08-08T11:03:37;21.30;99.90
10247;DHT22;5168;47.854;7.944;2023-08-08T11:06:06;21.00;99.90
10247;DHT22;5168;47.854;7.944;2023-08-08T11:08:32;21.10;99.90
10247;DHT22;5168;47.854;7.944;2023-08-08T11:10:58;21.30;99.90
10247;DHT22;5168;47.854;7.944;2023-08-08T11:13:24;21.40;99.90
10247;DHT22;5168;47.854;7.944;2023-08-08T11:15:50;21.00;99.90
10247;DHT22;5168;47.854;7.944;2023-08-08T11:18:16;21.30;99.90
10247;DHT22;5168;47.854;7.944;2023-08-08T11:20:41;20.80;99.90
10247;DHT22;5168;47.854;7.944;2023-08-08T11:23:07;21.50;99.90
10247;DHT22;5168;47.854;7.944;2023-08-08T11:25:36;20.80;99.90
10247;DHT22;5168;47.854;7.944;2023-08-08T11:28:02;21.60;99.90
10247;DHT22;5168;47.854;7.944;2023-08-08T11:30:38;20.70;99.90
10247;DHT22;5168;47.854;7.944;2023-08-08T11:33:04;20.60;99.90
10247;DHT22;5168;47.854;7.944;2023-08-08T11:35:30;20.40;99.90
10247;DHT22;5168;47.854;7.944;2023-08-08T11:37:57;20.60;99.90
10247;DHT22;5168;47.854;7.944;2023-08-08T11:40:25;20.20;99.90
10247;DHT22;5168;47.854;7.944;2023-08-08T11:42:52;20.50;99.90
10247;DHT22;5168;47.854;7.944;2023-08-08T11:45:18;21.00;99.90
10247;DHT22;5168;47.854;7.944;2023-08-08T11:47:48;21.30;99.90
10247;DHT22;5168;47.854;7.944;2023-08-08T11:52:42;21.30;99.90
10247;DHT22;5168;47.854;7.944;2023-08-08T11:55:09;21.30;99.90
10247;DHT22;5168;47.854;7.944;2023-08-08T11:57:41;20.90;99.90
10247;DHT22;5168;47.854;7.944;2023-08-08T12:00:09;20.80;99.90
10247;DHT22;5168;47.854;7.944;2023-08-08T12:02:39;20.90;99.90
10247;DHT22;5168;47.854;7.944;2023-08-08T12:05:10;21.10;99.90
10247;DHT22;5168;47.854;7.944;2023-08-08T12:07:39;21.00;99.90
10247;DHT22;5168;47.854;7.944;2023-08-08T12:10:20;20.90;99.90
10247;DHT22;5168;47.854;7.944;2023-08-08T12:12:51;21.30;99.90
10247;DHT22;5168;47.854;7.944;2023-08-08T12:22:35;20.30;99.90
10247;DHT22;5168;47.854;7.944;2023-08-08T12:25:01;20.30;99.90
10247;DHT22;5168;47.854;7.944;2023-08-08T12:27:29;20.30;99.90
10247;DHT22;5168;47.854;7.944;2023-08-08T12:29:54;20.60;99.90
10247;DHT22;5168;47.854;7.944;2023-08-08T12:32:20;19.70;99.90
10247;DHT22;5168;47.854;7.944;2023-08-08T12:34:49;19.90;99.90
10247;DHT22;5168;47.854;7.944;2023-08-08T12:37:16;19.70;99.90
10247;DHT22;5168;47.854;7.944;2023-08-08T12:39:41;19.20;99.90
10247;DHT22;5168;47.854;7.944;2023-08-08T12:42:07;19.60;99.90
10247;DHT22;5168;47.854;7.944;2023-08-08T12:44:33;19.60;99.90
10247;DHT22;5168;47.854;7.944;2023-08-08T12:51:50;19.30;99.90
10247;DHT22;5168;47.854;7.944;2023-08-08T12:56:43;20.30;99.90
10247;DHT22;5168;47.854;7.944;2023-08-08T13:01:36;20.10;99.90
10247;DHT22;5168;47.854;7.944;2023-08-08T13:04:02;20.20;99.90
10247;DHT22;5168;47.854;7.944;2023-08-08T13:06:28;21.00;99.90
10247;DHT22;5168;47.854;7.944;2023-08-08T13:08:54;20.10;99.90
10247;DHT22;5168;47.854;7.944;2023-08-08T13:11:21;20.20;99.90
10247;DHT22;5168;47.854;7.944;2023-08-08T13:13:46;20.30;99.90
10247;DHT22;5168;47.854;7.944;2023-08-08T13:16:12;19.90;99.90
10247;DHT22;5168;47.854;7.944;2023-08-08T13:23:29;20.20;99.90
10247;DHT22;5168;47.854;7.944;2023-08-08T13:25:55;20.00;99.90
10247;DHT22;5168;47.854;7.944;2023-08-08T13:28:21;20.40;99.90
10247;DHT22;5168;47.854;7.944;2023-08-08T13:30:47;20.30;99.90
10247;DHT22;5168;47.854;7.944;2023-08-08T13:35:39;19.30;99.90
10247;DHT22;5168;47.854;7.944;2023-08-08T13:40:32;19.60;99.90
10247;DHT22;5168;47.854;7.944;2023-08-08T13:42:57;18.90;99.90
10247;DHT22;5168;47.854;7.944;2023-08-08T13:45:23;18.70;99.90
10247;DHT22;5168;47.854;7.944;2023-08-08T13:47:49;18.90;99.90
10247;DHT22;5168;47.854;7.944;2023-08-08T13:52:41;19.20;99.90
10247;DHT22;5168;47.854;7.944;2023-08-08T13:55:08;19.30;99.90
10247;DHT22;5168;47.854;7.944;2023-08-08T13:57:34;19.70;99.90
10247;DHT22;5168;47.854;7.944;2023-08-08T14:00:00;18.60;99.90
10247;DHT22;5168;47.854;7.944;2023-08-08T14:02:26;19.00;99.90
10247;DHT22;5168;47.854;7.944;2023-08-08T14:07:18;18.80;99.90
10247;DHT22;5168;47.854;7.944;2023-08-08T14:14:39;19.10;99.90
10247;DHT22;5168;47.854;7.944;2023-08-08T14:17:04;19.30;99.90
10247;DHT22;5168;47.854;7.944;2023-08-08T14:24:22;19.50;99.90
10247;DHT22;5168;47.854;7.944;2023-08-08T14:26:47;18.80;99.90
10247;DHT22;5168;47.854;7.944;2023-08-08T14:29:14;19.30;99.90
10247;DHT22;5168;47.854;7.944;2023-08-08T14:31:40;19.40;99.90
10247;DHT22;5168;47.854;7.944;2023-08-08T14:34:05;19.70;99.90
10247;DHT22;5168;47.854;7.944;2023-08-08T14:38:56;19.30;99.90
10247;DHT22;5168;47.854;7.944;2023-08-08T14:41:22;19.50;99.90
10247;DHT22;5168;47.854;7.944;2023-08-08T14:43:48;19.00;99.90
10247;DHT22;5168;47.854;7.944;2023-08-08T14:53:31;18.30;99.90
10247;DHT22;5168;47.854;7.944;2023-08-08T14:55:57;18.30;99.90
10247;DHT22;5168;47.854;7.944;2023-08-08T14:58:26;19.10;99.90
10247;DHT22;5168;47.854;7.944;2023-08-08T15:00:51;19.20;99.90
10247;DHT22;5168;47.854;7.944;2023-08-08T15:05:44;18.60;99.90
10247;DHT22;5168;47.854;7.944;2023-08-08T15:08:11;19.40;99.90
10247;DHT22;5168;47.854;7.944;2023-08-08T15:10:36;18.70;99.90
10247;DHT22;5168;47.854;7.944;2023-08-08T15:13:02;19.30;99.90
10247;DHT22;5168;47.854;7.944;2023-08-08T15:15:28;19.30;99.90
10247;DHT22;5168;47.854;7.944;2023-08-08T15:32:30;18.10;99.90
10247;DHT22;5168;47.854;7.944;2023-08-08T15:34:57;18.40;99.90
10247;DHT22;5168;47.854;7.944;2023-08-08T15:37:23;18.10;99.90
10247;DHT22;5168;47.854;7.944;2023-08-08T15:39:48;17.70;99.90
10247;DHT22;5168;47.854;7.944;2023-08-08T15:44:40;17.30;99.90
10247;DHT22;5168;47.854;7.944;2023-08-08T15:49:33;17.60;99.90
10247;DHT22;5168;47.854;7.944;2023-08-08T15:51:59;17.90;99.90
10247;DHT22;5168;47.854;7.944;2023-08-08T15:54:25;17.50;99.90
10247;DHT22;5168;47.854;7.944;2023-08-08T15:56:50;17.60;99.90
10247;DHT22;5168;47.854;7.944;2023-08-08T15:59:17;17.90;99.90
10247;DHT22;5168;47.854;7.944;2023-08-08T16:06:36;18.10;99.90
10247;DHT22;5168;47.854;7.944;2023-08-08T16:11:28;17.10;99.90
10247;DHT22;5168;47.854;7.944;2023-08-08T16:13:53;17.40;99.90
10247;DHT22;5168;47.854;7.944;2023-08-08T16:23:38;16.80;99.90
10247;DHT22;5168;47.854;7.944;2023-08-08T16:26:04;16.80;99.90
10247;DHT22;5168;47.854;7.944;2023-08-08T16:30:56;16.90;99.90
10247;DHT22;5168;47.854;7.944;2023-08-08T16:33:21;17.30;99.90
10247;DHT22;5168;47.854;7.944;2023-08-08T16:35:47;16.40;99.90
10247;DHT22;5168;47.854;7.944;2023-08-08T16:38:12;16.30;99.90
10247;DHT22;5168;47.854;7.944;2023-08-08T16:43:05;16.60;99.90
10247;DHT22;5168;47.854;7.944;2023-08-08T16:45:31;16.90;99.90
10247;DHT22;5168;47.854;7.944;2023-08-08T17:00:07;16.00;99.90
10247;DHT22;5168;47.854;7.944;2023-08-08T17:05:01;15.70;99.90
10247;DHT22;5168;47.854;7.944;2023-08-08T17:07:26;16.40;99.90
10247;DHT22;5168;47.854;7.944;2023-08-08T17:09:55;16.40;99.90
10247;DHT22;5168;47.854;7.944;2023-08-08T17:12:20;16.20;99.90
10247;DHT22;5168;47.854;7.944;2023-08-08T17:17:12;16.00;99.90
10247;DHT22;5168;47.854;7.944;2023-08-08T17:19:38;15.80;99.90
10247;DHT22;5168;47.854;7.944;2023-08-08T17:24:29;15.00;99.90
10247;DHT22;5168;47.854;7.944;2023-08-08T17:26:55;15.90;99.90
10247;DHT22;5168;47.854;7.944;2023-08-08T17:31:47;15.60;99.90
10247;DHT22;5168;47.854;7.944;2023-08-08T17:34:13;14.90;99.90
10247;DHT22;5168;47.854;7.944;2023-08-08T17:48:48;15.40;99.90
10247;DHT22;5168;47.854;7.944;2023-08-08T17:51:14;14.70;99.90
10247;DHT22;5168;47.854;7.944;2023-08-08T17:53:39;15.50;99.90
10247;DHT22;5168;47.854;7.944;2023-08-08T18:01:00;14.80;99.90
10247;DHT22;5168;47.854;7.944;2023-08-08T18:03:26;14.90;99.90
10247;DHT22;5168;47.854;7.944;2023-08-08T18:15:36;14.50;99.90
10247;DHT22;5168;47.854;7.944;2023-08-08T18:27:48;14.70;99.90
10247;DHT22;5168;47.854;7.944;2023-08-08T18:32:43;14.20;99.90
10247;DHT22;5168;47.854;7.944;2023-08-08T18:35:09;14.40;99.90
10247;DHT22;5168;47.854;7.944;2023-08-08T18:40:02;13.80;99.90
10247;DHT22;5168;47.854;7.944;2023-08-08T18:44:53;13.70;99.90
10247;DHT22;5168;47.854;7.944;2023-08-08T18:52:11;14.10;99.90
10247;DHT22;5168;47.854;7.944;2023-08-08T18:54:36;13.90;99.90
10247;DHT22;5168;47.854;7.944;2023-08-08T18:57:02;14.00;99.90
10247;DHT22;5168;47.854;7.944;2023-08-08T19:06:46;13.40;99.90
10247;DHT22;5168;47.854;7.944;2023-08-08T19:09:11;12.80;99.90
10247;DHT22;5168;47.854;7.944;2023-08-08T19:11:42;12.70;99.90
10247;DHT22;5168;47.854;7.944;2023-08-08T19:16:36;13.30;99.90
10247;DHT22;5168;47.854;7.944;2023-08-08T19:19:02;12.90;99.90
10247;DHT22;5168;47.854;7.944;2023-08-08T19:28:48;13.10;99.90
10247;DHT22;5168;47.854;7.944;2023-08-08T19:31:17;13.00;99.90
10247;DHT22;5168;47.854;7.944;2023-08-08T19:33:43;13.30;99.90
10247;DHT22;5168;47.854;7.944;2023-08-08T19:41:08;12.30;99.90
10247;DHT22;5168;47.854;7.944;2023-08-08T19:50:51;12.50;99.90
10247;DHT22;5168;47.854;7.944;2023-08-08T19:55:43;12.40;99.90
10247;DHT22;5168;47.854;7.944;2023-08-08T20:00:36;13.00;99.90
10247;DHT22;5168;47.854;7.944;2023-08-08T20:03:01;12.30;99.90
10247;DHT22;5168;47.854;7.944;2023-08-08T20:05:27;12.30;99.90
10247;DHT22;5168;47.854;7.944;2023-08-08T20:10:19;12.30;99.90
10247;DHT22;5168;47.854;7.944;2023-08-08T20:12:45;12.50;99.90
10247;DHT22;5168;47.854;7.944;2023-08-08T20:17:38;12.30;99.90
10247;DHT22;5168;47.854;7.944;2023-08-08T20:20:04;12.70;99.90
10247;DHT22;5168;47.854;7.944;2023-08-08T20:22:29;12.40;99.90
10247;DHT22;5168;47.854;7.944;2023-08-08T20:27:21;12.10;99.90
10247;DHT22;5168;47.854;7.944;2023-08-08T20:32:12;12.30;99.90
10247;DHT22;5168;47.854;7.944;2023-08-08T20:34:38;12.40;99.90
10247;DHT22;5168;47.854;7.944;2023-08-08T20:39:31;12.10;99.90
10247;DHT22;5168;47.854;7.944;2023-08-08T20:41:59;12.70;99.90
10247;DHT22;5168;47.854;7.944;2023-08-08T20:44:25;12.70;99.90
10247;DHT22;5168;47.854;7.944;2023-08-08T20:46:50;12.20;99.90
10247;DHT22;5168;47.854;7.944;2023-08-08T20:51:42;12.60;99.90
10247;DHT22;5168;47.854;7.944;2023-08-08T20:54:07;12.60;99.90
10247;DHT22;5168;47.854;7.944;2023-08-08T20:56:33;12.50;99.90
10247;DHT22;5168;47.854;7.944;2023-08-08T20:58:59;12.10;99.90
10247;DHT22;5168;47.854;7.944;2023-08-08T21:11:09;12.80;99.90
10247;DHT22;5168;47.854;7.944;2023-08-08T21:16:00;12.60;99.90
10247;DHT22;5168;47.854;7.944;2023-08-08T21:18:26;13.00;99.90
10247;DHT22;5168;47.854;7.944;2023-08-08T21:25:43;12.40;99.90
10247;DHT22;5168;47.854;7.944;2023-08-08T21:28:09;12.80;99.90
10247;DHT22;5168;47.854;7.944;2023-08-08T21:33:00;13.10;99.90
10247;DHT22;5168;47.854;7.944;2023-08-08T21:40:18;13.20;99.90
10247;DHT22;5168;47.854;7.944;2023-08-08T21:42:43;12.80;99.90
10247;DHT22;5168;47.854;7.944;2023-08-08T21:45:09;12.40;99.90
10247;DHT22;5168;47.854;7.944;2023-08-08T21:47:35;12.70;99.90
10247;DHT22;5168;47.854;7.944;2023-08-08T21:54:52;12.60;99.90
10247;DHT22;5168;47.854;7.944;2023-08-08T21:57:18;12.50;99.90
10247;DHT22;5168;47.854;7.944;2023-08-08T21:59:43;13.30;99.90
10247;DHT22;5168;47.854;7.944;2023-08-08T22:04:35;13.50;99.90
10247;DHT22;5168;47.854;7.944;2023-08-08T22:11:53;13.30;99.90
10247;DHT22;5168;47.854;7.944;2023-08-08T22:14:20;12.90;99.90
10247;DHT22;5168;47.854;7.944;2023-08-08T22:16:45;13.00;99.90
10247;DHT22;5168;47.854;7.944;2023-08-08T22:19:11;13.00;99.90
10247;DHT22;5168;47.854;7.944;2023-08-08T22:21:36;13.00;99.90
10247;DHT22;5168;47.854;7.944;2023-08-08T22:38:38;12.10;99.90
10247;DHT22;5168;47.854;7.944;2023-08-08T22:41:03;12.80;99.90
10247;DHT22;5168;47.854;7.944;2023-08-08T22:43:29;12.90;99.90
10247;DHT22;5168;47.854;7.944;2023-08-08T22:48:22;12.40;99.90
10247;DHT22;5168;47.854;7.944;2023-08-08T23:02:57;12.30;99.90
10247;DHT22;5168;47.854;7.944;2023-08-08T23:05:23;12.40;99.90
10247;DHT22;5168;47.854;7.944;2023-08-08T23:07:48;12.70;99.90
10247;DHT22;5168;47.854;7.944;2023-08-08T23:15:06;12.20;99.90
10247;DHT22;5168;47.854;7.944;2023-08-08T23:17:31;12.90;99.90
10247;DHT22;5168;47.854;7.944;2023-08-08T23:19:57;12.80;99.90
10247;DHT22;5168;47.854;7.944;2023-08-08T23:22:23;13.10;99.90
10247;DHT22;5168;47.854;7.944;2023-08-08T23:27:14;12.40;99.90
10247;DHT22;5168;47.854;7.944;2023-08-08T23:29:40;12.40;99.90
10247;DHT22;5168;47.854;7.944;2023-08-08T23:32:06;12.60;99.90
10247;DHT22;5168;47.854;7.944;2023-08-08T23:34:31;12.20;99.90
10247;DHT22;5168;47.854;7.944;2023-08-08T23:41:49;12.50;99.90
10247;DHT22;5168;47.854;7.944;2023-08-08T23:46:40;12.70;99.90
10247;DHT22;5168;47.854;7.944;2023-08-08T23:49:06;12.10;99.90
10247;DHT22;5168;47.854;7.944;2023-08-08T23:51:32;12.60;99.90
10247;DHT22;5168;47.854;7.944;2023-08-08T23:53:59;12.00;99.90
10247;DHT22;5168;47.854;7.944;2023-08-08T23:56:24;11.90;99.90